Handytankers Glory — C6WH4 — position and weather

sailwx.info

Track history (hours):
 
Tides and Currents Weather Stations Pressure Air Temp Water Temp Dewpoint Dewpoint Depression Visibility Wind Speed Wind Dir Waves Ship Positions

Handytankers Glory

Last reported at 2018-Feb-22 02:43 UTC. Time now 2018-Feb-22 16:57 UTC.
Position N 36°03' E 014°43'.

Length 171 m; draft 6.9 m.

Type: Tanker. MMSI: 309553000.

Date/timePositionNaut miles runAvg speedWind from/ knotsBaromVisibWave heightAir tempDewpointWater temp
2018-Feb-22 02:43N 36°03' E 014°43'2 7.9
2018-Feb-22 02:28N 36°02' E 014°42'4 7.9
2018-Feb-22 02:00N 35°59' E 014°38'3 7.0
2018-Feb-22 01:30N 35°56' E 014°36'0 0.5
2018-Feb-22 01:00N 35°56' E 014°36'0 0.5
2018-Feb-22 00:30N 35°57' E 014°36'1 2.3
2018-Feb-22 00:00N 35°57' E 014°38'3 6.8
2018-Feb-21 23:30N 35°57' E 014°42'3 6.7
2018-Feb-21 22:59N 35°58' E 014°46'3 6.7
2018-Feb-21 22:30N 35°58' E 014°50'2 0.1
2018-Feb-20 13:50N 35°59' E 014°52'2 4.9
2018-Feb-20 13:30N 35°60' E 014°51'3 6.1
2018-Feb-20 13:00N 36°02' E 014°48'7 6.0
2018-Feb-20 11:50N 36°07' E 014°43'2 6.2
2018-Feb-20 11:30N 36°09' E 014°41'3 6.1
2018-Feb-20 11:00N 36°11' E 014°39'3 6.1
2018-Feb-20 10:30N 36°13' E 014°36'1 1.9
2018-Feb-20 09:59N 36°13' E 014°35'3 5.4
2018-Feb-20 09:30N 36°11' E 014°37'6 5.4
2018-Feb-20 08:26N 36°06' E 014°41'5 5.5
2018-Feb-20 07:33N 36°03' E 014°45'1 4.8
2018-Feb-20 07:19N 36°01' E 014°45'2 5.4
2018-Feb-20 07:00N 36°00' E 014°44'3 6.2
2018-Feb-20 06:30N 35°58' E 014°41'3 6.2
2018-Feb-20 05:58N 35°56' E 014°38'1 1.2
2018-Feb-20 05:30N 35°57' E 014°37'1 0.9
2018-Feb-20 04:43N 35°57' E 014°36'0 0.8
2018-Feb-20 04:30N 35°57' E 014°36'1 2.1
2018-Feb-20 04:00N 35°58' E 014°37'4 8.8
2018-Feb-20 03:30N 35°58' E 014°43'6 0.2
2018-Feb-18 21:50N 35°57' E 014°50'2 6.6
2018-Feb-18 21:30N 35°59' E 014°52'24311.7
2018-Feb-18 00:38N 39°08' E 018°04'310.5
2018-Feb-18 00:22N 39°11' E 018°06'3511.1
2018-Feb-17 21:16N 39°37' E 018°34'511.9
2018-Feb-17 20:50N 39°42' E 018°38'411.6
2018-Feb-17 20:30N 39°45' E 018°40'611.4
2018-Feb-17 20:00N 39°50' E 018°43'611.4
2018-Feb-17 19:29N 39°55' E 018°47'  
Track history (hours):
 
Tides and Currents Weather Stations Pressure Air Temp Water Temp Dewpoint Dewpoint Depression Visibility Wind Speed Wind Dir Waves Ship Positions

Handytankers Glory

Last reported at 2018-Feb-22 02:43 UTC. Time now 2018-Feb-22 16:57 UTC.
Position N 36°03' E 014°43'.

Length 171 m; draft 6.9 m.

Type: Tanker. MMSI: 309553000.

Date/timePositionNaut miles runAvg speedWind from/ knotsBaromVisibWave heightAir tempDewpointWater temp
2018-Feb-22 02:43N 36°03' E 014°43'2 7.9
2018-Feb-22 02:28N 36°02' E 014°42'4 7.9
2018-Feb-22 02:00N 35°59' E 014°38'3 7.0
2018-Feb-22 01:30N 35°56' E 014°36'0 0.5
2018-Feb-22 01:00N 35°56' E 014°36'0 0.5
2018-Feb-22 00:30N 35°57' E 014°36'1 2.3
2018-Feb-22 00:00N 35°57' E 014°38'3 6.8
2018-Feb-21 23:30N 35°57' E 014°42'3 6.7
2018-Feb-21 22:59N 35°58' E 014°46'3 6.7
2018-Feb-21 22:30N 35°58' E 014°50'2 0.1
2018-Feb-20 13:50N 35°59' E 014°52'2 4.9
2018-Feb-20 13:30N 35°60' E 014°51'3 6.1
2018-Feb-20 13:00N 36°02' E 014°48'7 6.0
2018-Feb-20 11:50N 36°07' E 014°43'2 6.2
2018-Feb-20 11:30N 36°09' E 014°41'3 6.1
2018-Feb-20 11:00N 36°11' E 014°39'3 6.1
2018-Feb-20 10:30N 36°13' E 014°36'1 1.9
2018-Feb-20 09:59N 36°13' E 014°35'3 5.4
2018-Feb-20 09:30N 36°11' E 014°37'6 5.4
2018-Feb-20 08:26N 36°06' E 014°41'5 5.5
2018-Feb-20 07:33N 36°03' E 014°45'1 4.8
2018-Feb-20 07:19N 36°01' E 014°45'2 5.4
2018-Feb-20 07:00N 36°00' E 014°44'3 6.2
2018-Feb-20 06:30N 35°58' E 014°41'3 6.2
2018-Feb-20 05:58N 35°56' E 014°38'1 1.2
2018-Feb-20 05:30N 35°57' E 014°37'1 0.9
2018-Feb-20 04:43N 35°57' E 014°36'0 0.8
2018-Feb-20 04:30N 35°57' E 014°36'1 2.1
2018-Feb-20 04:00N 35°58' E 014°37'4 8.8
2018-Feb-20 03:30N 35°58' E 014°43'6 0.2
2018-Feb-18 21:50N 35°57' E 014°50'2 6.6
2018-Feb-18 21:30N 35°59' E 014°52'24311.7
2018-Feb-18 00:38N 39°08' E 018°04'310.5
2018-Feb-18 00:22N 39°11' E 018°06'3511.1
2018-Feb-17 21:16N 39°37' E 018°34'511.9
2018-Feb-17 20:50N 39°42' E 018°38'411.6
2018-Feb-17 20:30N 39°45' E 018°40'611.4
2018-Feb-17 20:00N 39°50' E 018°43'611.4
2018-Feb-17 19:29N 39°55' E 018°47'  

Dump ship's entire track history